Severobaykal'sk, Russia
Current Conditions -  °F | °C
As of 4:00 PM on Monday 22 Dec 2014 (Local Time) from UIUU Reporting Station
Broken Clouds Broken Clouds  
Wind Chill:   Ceiling: 3200
Heat Index: 19°   Visibility: 6mi
Dew Point: 14°   Wind: 9mph
Humidity: 80%   Direction: 280°W
Pressure: 30.09"   Gusts: NA
Location:  55.44°N, 109.19°E
Report Text: UIUU 220800Z 28004MPS 9999 BKN032CB M07/M10 Q1019 NOSIG RMKQFE719/0959 26452040
Loading
Personal Weather Stations






























Interactive Weather Map New forecast layout! Learn more

10-Day Weather Forecast

Advertisements
Track Severe Weather on mobile